Time;durP1;ratioP1;P1;durP2;ratioP2;P2;SDS_P1;SDS_P2;PMS_P1;PMS_P2;Temp;Humidity;BMP_temperature;BMP_pressure;BME280_temperature;BME280_humidity;BME280_pressure;Samples;Min_cycle;Max_cycle;Signal;HPM_P1;HPM_P2
2023/03/11 00:02:13;;;;;;;1.20;0.90;;;;;;;1.08;100.00;100814.41;5033170;28;20036;-60
2023/03/11 00:04:38;;;;;;;6.70;1.08;;;;;;;1.00;100.00;100819.56;5036051;28;20032;-62
2023/03/11 00:07:08;;;;;;;8.18;1.33;;;;;;;0.98;100.00;100818.69;5034588;28;20124;-62
2023/03/11 00:09:33;;;;;;;7.22;1.33;;;;;;;0.97;100.00;100822.13;5032854;28;20103;-63
2023/03/11 00:11:59;;;;;;;4.57;1.23;;;;;;;0.99;100.00;100826.47;5034010;28;20030;-62
2023/03/11 00:14:24;;;;;;;5.15;1.10;;;;;;;1.10;100.00;100815.28;5034020;28;20021;-62
2023/03/11 00:16:49;;;;;;;6.03;1.05;;;;;;;1.24;100.00;100816.19;5033291;28;20079;-62
2023/03/11 00:19:15;;;;;;;7.65;1.58;;;;;;;1.34;100.00;100830.09;5034901;28;20021;-62
2023/03/11 00:21:40;;;;;;;5.40;1.02;;;;;;;1.42;100.00;100830.16;5034153;28;20062;-63
2023/03/11 00:24:06;;;;;;;7.90;2.53;;;;;;;1.48;100.00;100843.13;5033296;28;20021;-63
2023/03/11 00:26:31;;;;;;;14.18;4.20;;;;;;;1.53;100.00;100844.91;5030502;28;20037;-62
2023/03/11 00:28:56;;;;;;;7.13;2.92;;;;;;;1.54;100.00;100851.81;5033701;28;20057;-59
2023/03/11 00:31:22;;;;;;;13.70;2.75;;;;;;;1.50;100.00;100859.59;5033299;28;20072;-62
2023/03/11 00:33:47;;;;;;;13.80;2.70;;;;;;;1.43;100.00;100863.03;5035622;28;20029;-62
2023/03/11 00:36:22;;;;;;;13.40;3.08;;;;;;;1.30;100.00;100866.44;5032848;28;20474;-61
2023/03/11 00:38:48;;;;;;;5.90;1.88;;;;;;;1.20;100.00;100866.38;5034228;28;20078;-62
2023/03/11 00:41:13;;;;;;;4.40;1.33;;;;;;;1.12;100.00;100863.72;5033537;28;20022;-60
2023/03/11 00:43:39;;;;;;;9.25;1.15;;;;;;;1.12;100.00;100870.66;5033299;28;20071;-61
2023/03/11 00:46:05;;;;;;;2.53;0.60;;;;;;;1.12;100.00;100870.66;5035387;28;20164;-61
2023/03/11 00:48:30;;;;;;;5.57;0.90;;;;;;;1.12;100.00;100873.25;5021960;28;20040;-61
2023/03/11 00:50:55;;;;;;;8.82;1.20;;;;;;;1.15;100.00;100873.28;5052955;28;20039;-62
2023/03/11 00:53:21;;;;;;;3.83;0.90;;;;;;;1.20;100.00;100876.75;5037256;28;20029;-62
2023/03/11 00:55:46;;;;;;;12.02;1.27;;;;;;;1.21;100.00;100870.69;5032945;28;20025;-60
2023/03/11 00:58:12;;;;;;;6.93;1.58;;;;;;;1.32;99.29;100878.56;5033078;28;20075;-62
2023/03/11 01:00:37;;;;;;;4.40;1.13;;;;;;;1.37;98.93;100873.38;5035972;28;20032;-62
2023/03/11 01:03:02;;;;;;;3.53;0.90;;;;;;;1.49;98.67;100875.19;5031674;28;20079;-63
2023/03/11 01:05:30;;;;;;;5.85;0.90;;;;;;;1.55;98.57;100887.31;5029274;28;20030;-63
2023/03/11 01:07:56;;;;;;;5.50;0.90;;;;;;;1.53;98.74;100889.06;5046476;28;20025;-62
2023/03/11 01:10:21;;;;;;;8.10;1.20;;;;;;;1.53;98.90;100886.47;5048865;28;20057;-62
2023/03/11 01:12:47;;;;;;;4.25;0.63;;;;;;;1.46;98.95;100885.53;5046606;28;20033;-62
2023/03/11 01:15:19;;;;;;;4.38;0.43;;;;;;;1.36;98.90;100884.66;5032409;28;20029;-58
2023/03/11 01:17:44;;;;;;;5.82;1.35;;;;;;;1.24;99.86;100888.03;5049635;28;20057;-61
2023/03/11 01:20:11;;;;;;;2.40;0.93;;;;;;;1.17;100.00;100897.50;5044088;28;20448;-62
2023/03/11 01:22:36;;;;;;;5.55;1.02;;;;;;;1.15;100.00;100899.25;5030761;28;20025;-62
2023/03/11 01:25:02;;;;;;;3.97;0.70;;;;;;;1.12;99.78;100894.03;5028788;28;20485;-63
2023/03/11 01:27:28;;;;;;;5.28;1.13;;;;;;;1.04;100.00;100898.28;5031430;28;20056;-61
2023/03/11 01:29:53;;;;;;;7.07;0.75;;;;;;;1.06;100.00;100897.47;4995850;28;20076;-62
2023/03/11 01:32:18;;;;;;;4.05;0.80;;;;;;;1.04;100.00;100893.09;5030606;28;20025;-62
2023/03/11 01:34:44;;;;;;;2.85;1.13;;;;;;;1.00;100.00;100900.84;5032145;28;20120;-61
2023/03/11 01:37:09;;;;;;;6.07;1.10;;;;;;;0.99;100.00;100904.31;5049580;28;20108;-60
2023/03/11 01:39:34;;;;;;;7.20;1.05;;;;;;;0.98;100.00;100900.00;5033956;28;20025;-60
2023/03/11 01:42:00;;;;;;;2.72;0.70;;;;;;;0.99;99.63;100899.13;5028998;28;20025;-63
2023/03/11 01:44:25;;;;;;;4.00;0.88;;;;;;;0.99;99.70;100893.94;5030595;28;20120;-63
2023/03/11 01:46:50;;;;;;;6.80;1.33;;;;;;;0.95;99.64;100897.38;5040679;28;20108;-62
2023/03/11 01:49:16;;;;;;;2.85;1.05;;;;;;;0.96;99.21;100911.22;5028632;28;20104;-62
2023/03/11 01:51:44;;;;;;;2.30;0.70;;;;;;;0.95;99.13;100907.75;5033831;28;20458;-62
2023/03/11 01:54:12;;;;;;;8.60;0.88;;;;;;;0.98;99.09;100912.97;5031882;28;20558;-63
2023/03/11 01:56:38;;;;;;;7.85;1.15;;;;;;;0.98;98.69;100909.50;5047089;28;20025;-62
2023/03/11 01:59:05;;;;;;;2.05;0.88;;;;;;;0.96;98.70;100908.63;5029264;28;20052;-62
2023/03/11 02:01:31;;;;;;;2.45;1.00;;;;;;;0.96;98.11;100906.88;5108496;22;20068;-63
2023/03/11 02:03:56;;;;;;;7.53;1.05;;;;;;;1.00;97.51;100906.03;5030550;28;20021;-62
2023/03/11 02:06:23;;;;;;;5.10;0.85;;;;;;;1.04;97.72;100906.06;5048140;28;20053;-63
2023/03/11 02:08:49;;;;;;;1.75;0.60;;;;;;;1.04;97.85;100913.84;5049207;28;20036;-62
2023/03/11 02:11:25;;;;;;;3.92;0.60;;;;;;;0.99;98.30;100912.09;5047732;28;20021;-62
2023/03/11 02:13:53;;;;;;;8.02;1.27;;;;;;;0.98;98.09;100905.19;5030662;28;20028;-62
2023/03/11 02:16:19;;;;;;;1.13;0.70;;;;;;;0.96;98.18;100913.81;5030473;28;20032;-62
2023/03/11 02:18:44;;;;;;;6.10;1.25;;;;;;;0.97;97.97;100913.81;5048056;28;20475;-64
2023/03/11 02:21:22;;;;;;;3.38;1.00;;;;;;;1.03;97.03;100912.13;5030004;28;20029;-62
2023/03/11 02:23:50;;;;;;;1.65;0.70;;;;;;;1.04;96.72;100911.25;5049028;28;20436;-63
2023/03/11 02:26:47;;;;;;;6.27;0.73;;;;;;;1.05;96.67;100913.03;5047506;28;20465;-63
2023/03/11 02:29:13;;;;;;;3.15;0.68;;;;;;;1.05;96.08;100921.66;5048351;28;20035;-60
2023/03/11 02:31:39;;;;;;;1.25;0.60;;;;;;;1.06;95.46;100918.22;5030081;28;20033;-63
2023/03/11 02:34:11;;;;;;;4.13;0.80;;;;;;;1.09;95.56;100917.38;5047417;28;20550;-62
2023/03/11 02:36:41;;;;;;;4.57;0.75;;;;;;;1.05;95.59;100919.06;5031204;28;20051;-62
2023/03/11 02:39:07;;;;;;;3.92;0.95;;;;;;;1.04;95.89;100911.25;5048185;28;20036;-62
2023/03/11 02:41:36;;;;;;;6.60;0.73;;;;;;;1.01;95.44;100912.13;5046687;28;20116;-63
2023/03/11 02:44:02;;;;;;;3.47;0.77;;;;;;;1.00;95.69;100911.22;5029931;28;20028;-66
2023/03/11 02:46:27;;;;;;;5.00;1.00;;;;;;;1.00;95.39;100912.97;5029268;28;20287;-62
2023/03/11 02:48:53;;;;;;;2.13;0.90;;;;;;;0.94;95.74;100916.41;5048426;28;20424;-63
2023/03/11 02:51:18;;;;;;;3.65;0.60;;;;;;;0.87;96.17;100909.41;5046337;28;20032;-62
2023/03/11 02:53:47;;;;;;;4.80;1.08;;;;;;;0.75;96.91;100913.66;5048335;28;20103;-63
2023/03/11 02:56:12;;;;;;;3.33;0.98;;;;;;;0.72;97.60;100913.63;5046782;28;20565;-64
2023/03/11 02:58:38;;;;;;;1.98;0.68;;;;;;;0.67;97.86;100917.06;5047408;28;20029;-62
2023/03/11 03:01:03;;;;;;;6.50;0.90;;;;;;;0.62;98.33;100929.97;5048644;28;20082;-62
2023/03/11 03:03:29;;;;;;;2.78;0.70;;;;;;;0.52;99.20;100934.22;5046229;28;20103;-63
2023/03/11 03:05:54;;;;;;;4.22;0.70;;;;;;;0.45;100.00;100938.47;5045720;28;20025;-63
2023/03/11 03:08:19;;;;;;;4.95;0.82;;;;;;;0.34;100.00;100935.78;5047190;28;20120;-62
2023/03/11 03:10:45;;;;;;;5.10;0.80;;;;;;;0.09;100.00;100939.84;5045844;28;20060;-62
2023/03/11 03:13:11;;;;;;;10.15;1.27;;;;;;;-0.08;100.00;100943.09;5029878;28;20477;-62
2023/03/11 03:15:37;;;;;;;5.65;0.88;;;;;;;-0.15;100.00;100946.47;5046365;28;20163;-61
2023/03/11 03:18:02;;;;;;;1.92;0.70;;;;;;;-0.18;100.00;100949.03;5047759;28;20041;-61
2023/03/11 03:20:27;;;;;;;4.65;0.88;;;;;;;-0.22;100.00;100953.28;5047019;28;20028;-62
2023/03/11 03:22:53;;;;;;;5.28;0.93;;;;;;;-0.29;100.00;100949.75;5046303;28;20036;-61
2023/03/11 03:25:18;;;;;;;2.67;0.80;;;;;;;-0.37;100.00;100956.53;5029174;28;20032;-58
2023/03/11 03:27:44;;;;;;;1.77;0.80;;;;;;;-0.49;100.00;100958.97;5046636;28;20473;-61
2023/03/11 03:30:10;;;;;;;2.35;0.80;;;;;;;-0.51;100.00;100961.56;5046147;28;20036;-62
2023/03/11 03:32:36;;;;;;;4.00;0.80;;;;;;;-0.49;100.00;100964.16;5047156;28;20029;-61
2023/03/11 03:35:01;;;;;;;5.80;1.23;;;;;;;-0.53;100.00;100969.28;5045859;28;20040;-60
2023/03/11 03:37:28;;;;;;;1.45;0.70;;;;;;;-0.51;100.00;100975.34;5047779;28;20419;-63
2023/03/11 03:39:54;;;;;;;3.58;1.13;;;;;;;-0.50;100.00;100976.22;5046510;28;20025;-63
2023/03/11 03:42:19;;;;;;;4.90;1.13;;;;;;;-0.45;100.00;100984.06;5028373;28;20392;-63
2023/03/11 03:44:45;;;;;;;3.50;0.73;;;;;;;-0.44;100.00;100984.09;5047323;28;20033;-62
2023/03/11 03:47:10;;;;;;;4.47;1.00;;;;;;;-0.40;100.00;100979.81;5011941;28;20538;-63
2023/03/11 03:49:36;;;;;;;4.55;1.00;;;;;;;-0.34;100.00;100989.38;5048186;28;20039;-62
2023/03/11 03:52:04;;;;;;;2.03;0.70;;;;;;;-0.32;100.00;100985.97;5046677;28;20021;-62
2023/03/11 03:54:29;;;;;;;4.57;0.95;;;;;;;-0.32;100.00;100992.84;5046414;28;20025;-62
2023/03/11 03:56:55;;;;;;;2.90;0.70;;;;;;;-0.33;100.00;101004.94;5046813;28;20086;-63
2023/03/11 03:59:20;;;;;;;4.90;1.23;;;;;;;-0.30;100.00;100999.78;5046103;28;20453;-62
2023/03/11 04:01:46;;;;;;;12.20;1.10;;;;;;;-0.23;100.00;100992.09;5047445;28;20079;-61
2023/03/11 04:04:11;;;;;;;3.70;0.70;;;;;;;-0.23;100.00;100999.88;5046060;28;20118;-62
2023/03/11 04:06:36;;;;;;;4.53;1.08;;;;;;;-0.18;100.00;100998.22;5047024;28;20017;-62
2023/03/11 04:09:02;;;;;;;2.78;0.95;;;;;;;-0.20;100.00;100992.16;5047550;28;20091;-61
2023/03/11 04:11:27;;;;;;;3.53;0.82;;;;;;;-0.27;100.00;100997.25;5045473;28;20033;-63
2023/03/11 04:13:53;;;;;;;3.92;0.90;;;;;;;-0.24;100.00;100990.38;5046287;28;20021;-62
2023/03/11 04:16:21;;;;;;;1.90;0.98;;;;;;;-0.24;100.00;100987.78;5047246;28;20083;-63
2023/03/11 04:18:46;;;;;;;2.25;0.70;;;;;;;-0.26;100.00;100991.25;5028671;28;20025;-64
2023/03/11 04:21:12;;;;;;;3.05;0.60;;;;;;;-0.25;100.00;100997.28;5046199;28;20070;-63
2023/03/11 04:23:37;;;;;;;5.82;0.85;;;;;;;-0.20;100.00;101000.81;5047467;28;20473;-62
2023/03/11 04:26:03;;;;;;;0.95;0.73;;;;;;;-0.17;100.00;100994.78;5045887;28;20025;-63
2023/03/11 04:28:28;;;;;;;0.73;0.70;;;;;;;-0.17;100.00;100993.06;5046506;28;20029;-63
2023/03/11 04:30:54;;;;;;;0.82;0.70;;;;;;;-0.20;100.00;100995.63;5047008;28;20031;-62
2023/03/11 04:33:19;;;;;;;2.33;1.20;;;;;;;-0.29;100.00;100996.38;5044958;28;20057;-62
2023/03/11 04:35:44;;;;;;;2.38;0.82;;;;;;;-0.39;100.00;100997.94;5047205;28;20033;-63
2023/03/11 04:38:10;;;;;;;1.90;0.85;;;;;;;-0.53;100.00;100995.19;5046054;28;20116;-63
2023/03/11 04:40:36;;;;;;;2.92;1.00;;;;;;;-0.62;100.00;101001.91;5048931;28;20059;-62
2023/03/11 04:43:02;;;;;;;3.08;0.65;;;;;;;-0.70;100.00;101007.84;5050796;28;20033;-62
2023/03/11 04:45:27;;;;;;;2.80;0.80;;;;;;;-0.72;100.00;101008.69;5050312;28;20032;-62
2023/03/11 04:47:52;;;;;;;2.40;0.93;;;;;;;-0.78;100.00;101012.06;5049480;28;20072;-62
2023/03/11 04:50:18;;;;;;;3.03;0.70;;;;;;;-0.87;100.00;101025.72;5047262;28;20020;-64
2023/03/11 04:52:44;;;;;;;3.30;1.00;;;;;;;-0.86;100.00;101019.69;5050742;28;20113;-62
2023/03/11 04:55:09;;;;;;;12.63;1.48;;;;;;;-0.82;100.00;101016.28;5049038;28;20017;-63
2023/03/11 04:57:35;;;;;;;2.00;0.85;;;;;;;-0.89;100.00;101014.47;5051554;28;20492;-61
2023/03/11 05:00:01;;;;;;;3.42;0.98;;;;;;;-0.88;100.00;101020.50;5050380;28;20029;-62
2023/03/11 05:02:26;;;;;;;1.33;0.90;;;;;;;-0.90;100.00;101010.13;5048889;28;20084;-59
2023/03/11 05:04:52;;;;;;;5.35;1.00;;;;;;;-0.94;100.00;101016.97;5050832;28;20473;-62
2023/03/11 05:07:17;;;;;;;3.22;0.85;;;;;;;-0.98;100.00;101020.34;5049279;28;20077;-64
2023/03/11 05:09:42;;;;;;;3.28;0.88;;;;;;;-1.04;100.00;101028.00;5048674;28;20131;-62
2023/03/11 05:12:11;;;;;;;3.70;0.90;;;;;;;-1.13;100.00;101031.31;5051254;28;20021;-63
2023/03/11 05:14:36;;;;;;;3.63;1.02;;;;;;;-1.17;100.00;101030.38;5050079;28;20029;-63
2023/03/11 05:17:01;;;;;;;5.00;1.00;;;;;;;-1.22;100.00;101038.88;5044862;28;20075;-63
2023/03/11 05:19:29;;;;;;;2.08;0.80;;;;;;;-1.23;100.00;101024.22;5032423;28;20025;-62
2023/03/11 05:21:55;;;;;;;6.28;1.15;;;;;;;-1.22;100.00;101026.84;5049193;28;20040;-63
2023/03/11 05:24:21;;;;;;;3.70;1.08;;;;;;;-1.27;100.00;101031.03;5048765;28;20017;-64
2023/03/11 05:26:46;;;;;;;4.35;0.88;;;;;;;-1.31;100.00;101030.13;5050346;28;20021;-62
2023/03/11 05:29:11;;;;;;;2.70;0.88;;;;;;;-1.31;100.00;101037.00;5048622;28;20362;-63
2023/03/11 05:31:37;;;;;;;3.30;0.80;;;;;;;-1.36;100.00;101034.34;5049368;28;20040;-63
2023/03/11 05:34:03;;;;;;;2.03;1.30;;;;;;;-1.40;100.00;101040.28;5050116;28;20025;-63
2023/03/11 05:36:28;;;;;;;5.40;1.13;;;;;;;-1.45;100.00;101034.16;5048804;28;20033;-62
2023/03/11 05:38:54;;;;;;;3.55;1.05;;;;;;;-1.53;100.00;101037.47;5048886;28;20437;-62
2023/03/11 05:41:19;;;;;;;3.15;1.02;;;;;;;-1.56;100.00;101039.13;5048098;28;20028;-61
2023/03/11 05:43:45;;;;;;;4.13;1.17;;;;;;;-1.60;100.00;101040.78;5048287;28;20021;-61
2023/03/11 05:46:11;;;;;;;5.68;1.30;;;;;;;-1.60;100.00;101040.78;5048381;28;20108;-63
2023/03/11 05:48:37;;;;;;;4.10;1.08;;;;;;;-1.57;100.00;101047.72;5039993;28;20038;-62
2023/03/11 05:51:06;;;;;;;3.72;1.23;;;;;;;-1.55;100.00;101051.22;5028252;28;20076;-62
2023/03/11 05:53:32;;;;;;;5.82;1.38;;;;;;;-1.55;100.00;101054.69;5046480;28;20029;-64
2023/03/11 05:55:58;;;;;;;2.55;0.90;;;;;;;-1.58;100.00;101054.63;5048035;28;20032;-62
2023/03/11 05:58:23;;;;;;;3.00;1.40;;;;;;;-1.57;100.00;101061.53;5049615;28;20479;-62
2023/03/11 06:00:49;;;;;;;8.32;1.60;;;;;;;-1.57;100.00;101055.47;5049290;28;20061;-63
2023/03/11 06:03:14;;;;;;;1.70;1.30;;;;;;;-1.60;100.00;101060.59;5040998;28;20053;-62
2023/03/11 06:05:47;;;;;;;4.63;1.30;;;;;;;-1.62;100.00;101064.84;5048918;28;20381;-65
2023/03/11 06:08:12;;;;;;;3.42;1.20;;;;;;;-1.62;100.00;101065.75;5049295;28;20032;-63
2023/03/11 06:10:38;;;;;;;4.70;1.58;;;;;;;-1.63;100.00;101063.13;5048261;28;20021;-62
2023/03/11 06:13:03;;;;;;;0.73;0.73;;;;;;;-1.66;100.00;101067.38;5049513;28;20025;-61
2023/03/11 06:15:29;;;;;;;4.15;1.10;;;;;;;-1.67;100.00;101075.09;5048603;28;20107;-61
2023/03/11 06:17:54;;;;;;;5.32;1.30;;;;;;;-1.66;100.00;101082.00;5048098;28;20028;-61
2023/03/11 06:20:20;;;;;;;6.78;1.60;;;;;;;-1.60;100.00;101081.28;5048568;28;20075;-61
2023/03/11 06:22:48;;;;;;;6.90;2.10;;;;;;;-1.55;100.00;101085.69;5047520;28;20487;-62
2023/03/11 06:25:14;;;;;;;3.75;1.63;;;;;;;-1.55;100.00;101090.88;5047935;28;20121;-63
2023/03/11 06:27:39;;;;;;;12.05;2.00;;;;;;;-1.50;100.00;101092.66;5042553;28;20158;-64
2023/03/11 06:30:05;;;;;;;5.40;2.20;;;;;;;-1.49;100.00;101090.09;5039167;28;20033;-63
2023/03/11 06:32:30;;;;;;;3.20;1.80;;;;;;;-1.49;100.00;101086.63;5048847;28;20025;-64
2023/03/11 06:34:56;;;;;;;2.90;1.75;;;;;;;-1.48;100.00;101097.00;5046585;28;20025;-63
2023/03/11 06:37:23;;;;;;;3.05;1.60;;;;;;;-1.47;100.00;101092.72;5046888;28;20029;-64
2023/03/11 06:39:52;;;;;;;2.00;1.63;;;;;;;-1.47;100.00;101095.31;5044699;28;20044;-63
2023/03/11 06:42:17;;;;;;;11.35;2.20;;;;;;;-1.42;100.00;101099.72;5019122;28;20076;-62
2023/03/11 06:44:43;;;;;;;9.85;3.30;;;;;;;-1.33;100.00;101104.19;5046664;28;20140;-63
2023/03/11 06:47:08;;;;;;;12.07;5.32;;;;;;;-1.30;100.00;101101.69;5036927;28;20020;-64
2023/03/11 06:49:34;;;;;;;14.23;5.60;;;;;;;-1.18;100.00;101110.50;5046514;28;20408;-62
2023/03/11 06:51:59;;;;;;;10.30;5.40;;;;;;;-1.13;100.00;101114.06;5037943;28;20479;-64
2023/03/11 06:54:24;;;;;;;16.48;5.90;;;;;;;-1.09;100.00;101121.03;5033696;28;20032;-62
2023/03/11 06:56:50;;;;;;;18.40;5.10;;;;;;;-1.00;100.00;101120.34;5047476;28;20048;-64
2023/03/11 06:59:15;;;;;;;6.72;3.55;;;;;;;-0.93;100.00;101123.91;5035237;28;20021;-63
2023/03/11 07:01:40;;;;;;;12.32;3.55;;;;;;;-0.86;100.00;101130.06;5037124;28;20080;-63
2023/03/11 07:04:06;;;;;;;6.25;3.35;;;;;;;-0.82;100.00;101130.16;5047531;28;20036;-60
2023/03/11 07:06:31;;;;;;;9.27;3.65;;;;;;;-0.80;100.00;101133.66;5026841;28;20852;-61
2023/03/11 07:08:56;;;;;;;8.07;3.40;;;;;;;-0.79;100.00;101132.78;5047803;28;20025;-63
2023/03/11 07:11:26;;;;;;;6.10;3.65;;;;;;;-0.73;100.00;101131.19;5045506;28;20045;-63
2023/03/11 07:13:53;;;;;;;7.20;3.20;;;;;;;-0.57;100.00;101134.91;5045775;28;20128;-63
2023/03/11 07:16:21;;;;;;;8.40;3.45;;;;;;;-0.47;100.00;101138.50;5028671;28;20111;-63
2023/03/11 07:18:47;;;;;;;4.03;2.17;;;;;;;-0.31;100.00;101137.91;5044790;28;20056;-62
2023/03/11 07:21:14;;;;;;;5.53;2.88;;;;;;;-0.15;100.00;101135.56;5047231;28;20021;-62
2023/03/11 07:23:40;;;;;;;6.60;2.80;;;;;;;0.02;100.00;101146.16;5046176;28;20025;-64
2023/03/11 07:26:10;;;;;;;7.38;2.20;;;;;;;0.12;100.00;101148.03;5045413;28;20507;-63
2023/03/11 07:28:36;;;;;;;5.30;2.50;;;;;;;0.25;100.00;101162.03;5046885;28;20056;-62
2023/03/11 07:31:09;;;;;;;6.53;2.00;;;;;;;0.38;100.00;101157.03;5044962;28;20366;-62
2023/03/11 07:33:34;;;;;;;7.90;1.92;;;;;;;0.52;100.00;101157.22;5047879;28;20032;-62
2023/03/11 07:36:04;;;;;;;6.00;2.10;;;;;;;0.61;100.00;101156.47;5045570;28;20021;-61
2023/03/11 07:38:29;;;;;;;5.82;2.00;;;;;;;0.73;100.00;101155.75;5041361;28;20037;-61
2023/03/11 07:40:58;;;;;;;8.57;2.30;;;;;;;0.85;100.00;101155.03;5046237;28;20031;-61
2023/03/11 07:43:24;;;;;;;3.00;2.03;;;;;;;0.96;100.00;101153.41;5044232;28;20031;-63
2023/03/11 07:45:50;;;;;;;9.63;2.60;;;;;;;1.09;100.00;101161.34;5046420;28;20025;-64
2023/03/11 07:48:15;;;;;;;9.10;2.03;;;;;;;1.24;100.00;101163.22;5042370;28;20030;-62
2023/03/11 07:50:41;;;;;;;9.18;2.10;;;;;;;1.41;100.00;101165.97;5042128;28;20139;-60
2023/03/11 07:53:06;;;;;;;7.95;2.15;;;;;;;1.54;100.00;101166.09;5041247;28;20020;-62
2023/03/11 07:55:32;;;;;;;3.22;2.08;;;;;;;1.68;100.00;101171.44;5034866;28;20480;-61
2023/03/11 07:57:57;;;;;;;5.45;1.80;;;;;;;1.76;100.00;101174.94;5045519;28;20052;-62
2023/03/11 08:00:23;;;;;;;6.32;2.28;;;;;;;1.90;100.00;101172.47;5028059;28;20461;-62
2023/03/11 08:02:48;;;;;;;6.07;1.90;;;;;;;1.97;100.00;101179.44;5046240;28;20489;-60
2023/03/11 08:05:13;;;;;;;9.13;2.08;;;;;;;2.04;100.00;101182.09;5036828;28;20365;-63
2023/03/11 08:07:39;;;;;;;2.35;1.40;;;;;;;2.10;100.00;101179.50;5023352;28;20040;-61
2023/03/11 08:10:05;;;;;;;9.70;1.70;;;;;;;2.20;100.00;101189.09;5045531;28;20033;-61
2023/03/11 08:12:30;;;;;;;7.30;2.05;;;;;;;2.26;100.00;101183.94;5046657;28;20112;-62
2023/03/11 08:14:56;;;;;;;4.93;1.67;;;;;;;2.35;100.00;101190.09;5049995;28;20175;-62
2023/03/11 08:17:21;;;;;;;4.20;1.52;;;;;;;2.44;100.00;101190.13;5044701;28;20029;-62
2023/03/11 08:19:48;;;;;;;10.10;2.63;;;;;;;2.50;100.00;101192.75;5045793;28;20083;-62
2023/03/11 08:22:13;;;;;;;6.50;1.92;;;;;;;2.62;100.00;101198.91;5048995;28;20028;-63
2023/03/11 08:24:39;;;;;;;11.98;2.13;;;;;;;2.68;100.00;101211.91;5047430;28;20025;-63
2023/03/11 08:27:04;;;;;;;5.63;1.75;;;;;;;2.75;100.00;101207.63;5034620;28;20057;-60
2023/03/11 08:29:29;;;;;;;7.25;1.55;;;;;;;2.84;100.00;101209.41;5041242;28;20025;-63
2023/03/11 08:31:55;;;;;;;2.53;1.50;;;;;;;2.93;100.00;101204.25;5050933;28;20049;-62
2023/03/11 08:34:21;;;;;;;6.20;1.45;;;;;;;3.02;100.00;101208.63;5042649;28;20524;-61
2023/03/11 08:36:46;;;;;;;3.30;1.40;;;;;;;3.11;100.00;101211.25;5048701;28;20025;-60
2023/03/11 08:39:12;;;;;;;6.10;1.48;;;;;;;3.19;99.85;101210.41;5047792;28;20325;-63
2023/03/11 08:41:37;;;;;;;3.38;1.40;;;;;;;3.25;99.35;101213.88;5044805;28;20033;-60
2023/03/11 08:44:03;;;;;;;4.07;1.33;;;;;;;3.32;99.20;101214.78;5030135;28;20489;-60
2023/03/11 08:46:34;;;;;;;6.50;1.20;;;;;;;3.39;98.70;101215.66;5048743;28;20040;-61
2023/03/11 08:48:59;;;;;;;6.40;1.30;;;;;;;3.47;97.96;101216.56;5045049;28;20090;-62
2023/03/11 08:51:26;;;;;;;3.88;1.30;;;;;;;3.62;96.68;101233.06;5042570;28;20048;-60
2023/03/11 08:53:52;;;;;;;5.85;1.70;;;;;;;3.71;96.46;101235.69;5028201;28;20025;-61
2023/03/11 08:56:17;;;;;;;6.78;1.48;;;;;;;3.88;95.38;101242.63;5028691;28;20018;-63
2023/03/11 08:58:46;;;;;;;6.38;1.35;;;;;;;3.96;94.14;101222.66;5049554;28;20028;-62
2023/03/11 09:01:12;;;;;;;5.40;1.83;;;;;;;4.04;94.67;101231.34;5048883;28;20136;-62
2023/03/11 09:03:38;;;;;;;4.57;2.33;;;;;;;4.15;94.85;101228.72;5050305;28;20428;-62
2023/03/11 09:06:05;;;;;;;7.65;1.40;;;;;;;4.29;92.44;101236.56;5030669;28;20025;-63
2023/03/11 09:08:31;;;;;;;6.25;1.65;;;;;;;4.43;92.44;101238.28;5030523;28;20254;-62
2023/03/11 09:10:57;;;;;;;7.75;1.60;;;;;;;4.56;90.93;101244.34;5039775;28;20028;-60
2023/03/11 09:13:22;;;;;;;8.20;1.15;;;;;;;4.59;89.52;101248.66;5042736;28;20136;-60
2023/03/11 09:15:49;;;;;;;8.43;1.55;;;;;;;4.63;89.29;101239.94;5048010;28;20025;-60
2023/03/11 09:18:15;;;;;;;7.03;1.70;;;;;;;4.75;90.08;101242.53;5039635;28;20064;-60
2023/03/11 09:20:41;;;;;;;4.93;1.40;;;;;;;4.76;87.02;101240.81;5026102;28;20025;-61
2023/03/11 09:23:07;;;;;;;11.93;1.70;;;;;;;4.67;85.58;101239.09;5044472;28;20032;-60
2023/03/11 09:25:33;;;;;;;9.70;1.33;;;;;;;4.74;86.46;101232.09;5031828;28;20029;-59
2023/03/11 09:27:58;;;;;;;6.05;1.27;;;;;;;4.87;86.65;101233.78;5025040;28;20028;-60
2023/03/11 09:30:23;;;;;;;8.70;1.58;;;;;;;4.86;82.91;101234.69;5049980;28;20108;-61
2023/03/11 09:32:49;;;;;;;9.40;1.48;;;;;;;5.05;85.68;101227.63;5048770;28;20384;-61
2023/03/11 09:35:14;;;;;;;5.78;1.35;;;;;;;5.35;85.61;101229.19;5049688;28;20480;-61
2023/03/11 09:37:40;;;;;;;4.95;1.25;;;;;;;5.56;84.22;101243.91;5049746;28;20025;-62
2023/03/11 09:40:06;;;;;;;4.38;1.20;;;;;;;5.62;80.14;101243.84;5030821;28;20495;-63
2023/03/11 09:42:56;;;;;;;3.92;1.35;;;;;;;5.92;78.79;101238.41;5031495;28;20075;-59
2023/03/11 09:45:27;;;;;;;3.17;1.00;;;;;;;6.10;79.01;101234.81;5049643;28;20040;-61
2023/03/11 09:48:09;;;;;;;11.63;1.70;;;;;;;6.26;77.69;101230.28;5030347;28;20619;-62
2023/03/11 09:50:51;;;;;;;8.65;1.17;;;;;;;6.38;75.80;101238.94;5032215;28;20036;-62
2023/03/11 09:53:28;;;;;;;7.57;1.33;;;;;;;6.48;76.38;101240.56;5044091;28;20021;-61
2023/03/11 09:56:03;;;;;;;8.15;1.35;;;;;;;6.48;76.01;101248.44;5027857;28;20528;-61
2023/03/11 09:58:49;;;;;;;7.22;1.40;;;;;;;6.20;73.92;101251.28;5037247;28;20037;-61
2023/03/11 10:01:33;;;;;;;10.48;1.30;;;;;;;5.99;74.26;101253.16;5025910;28;20032;-63
2023/03/11 10:04:37;;;;;;;6.13;1.00;;;;;;;6.39;73.47;101245.88;5043535;28;20044;-61
2023/03/11 10:07:09;;;;;;;7.53;1.20;;;;;;;6.48;74.13;101252.78;5035703;28;20041;-60
2023/03/11 10:09:36;;;;;;;3.95;1.67;;;;;;;6.47;74.46;101248.44;5045624;28;20137;-62
2023/03/11 10:12:08;;;;;;;3.30;0.80;;;;;;;6.51;72.17;101247.50;5042318;28;20389;-58
2023/03/11 10:15:11;;;;;;;11.52;1.58;;;;;;;6.73;71.51;101248.16;5038369;28;20119;-61
2023/03/11 10:17:59;;;;;;;3.65;1.10;;;;;;;7.06;70.32;101247.75;5047575;28;20024;-61
2023/03/11 10:20:52;;;;;;;9.77;1.43;;;;;;;7.08;69.77;101236.38;5024461;28;20099;-61
2023/03/11 10:23:21;;;;;;;6.75;1.55;;;;;;;7.02;70.95;101231.22;5032815;28;20489;-59
2023/03/11 10:25:59;;;;;;;5.30;1.17;;;;;;;7.33;70.79;101236.06;5047592;28;20037;-60
2023/03/11 10:28:35;;;;;;;6.55;0.93;;;;;;;7.43;69.24;101238.53;5030260;28;20250;-60
2023/03/11 10:31:25;;;;;;;7.90;1.25;;;;;;;7.24;70.11;101238.81;5047121;28;20035;-61
2023/03/11 10:34:01;;;;;;;4.18;0.77;;;;;;;7.18;71.29;101236.25;5030434;28;20044;-60
2023/03/11 10:36:45;;;;;;;6.13;1.00;;;;;;;6.81;68.88;101238.44;5027904;28;20070;-61
2023/03/11 10:39:11;;;;;;;6.88;1.10;;;;;;;6.76;72.11;101245.50;5028330;28;20033;-59
2023/03/11 10:41:49;;;;;;;3.55;1.00;;;;;;;6.53;72.39;101246.59;5029092;28;20412;-59
2023/03/11 10:44:19;;;;;;;10.40;1.15;;;;;;;6.66;74.30;101239.50;5027975;28;20037;-60
2023/03/11 10:46:44;;;;;;;5.90;1.10;;;;;;;6.70;72.13;101246.44;5028051;28;20053;-59
2023/03/11 10:49:14;;;;;;;4.88;1.10;;;;;;;6.82;70.74;101244.56;5028901;28;20099;-61
2023/03/11 10:51:41;;;;;;;3.22;0.80;;;;;;;6.95;70.95;101253.13;5047483;28;20019;-60
2023/03/11 10:54:06;;;;;;;4.07;1.00;;;;;;;6.82;69.22;101245.44;5028864;28;20032;-59
2023/03/11 10:56:39;;;;;;;7.03;1.38;;;;;;;6.72;70.91;101248.16;5046713;28;20341;-58
2023/03/11 10:59:30;;;;;;;2.85;0.88;;;;;;;7.03;70.39;101264.41;5046703;28;20059;-61
2023/03/11 11:02:01;;;;;;;3.53;1.20;;;;;;;7.08;71.18;101262.56;5040297;28;20068;-62
2023/03/11 11:04:38;;;;;;;4.60;0.88;;;;;;;7.28;70.08;101258.84;5037247;28;20104;-61
2023/03/11 11:07:36;;;;;;;6.95;1.02;;;;;;;7.33;69.71;101267.53;5048263;28;20061;-60
2023/03/11 11:10:10;;;;;;;6.55;0.75;;;;;;;7.39;69.96;101258.69;5036573;28;20040;-62
2023/03/11 11:12:35;;;;;;;7.82;0.90;;;;;;;7.10;68.21;101261.72;5048392;28;20278;-60
2023/03/11 11:15:01;;;;;;;7.57;1.13;;;;;;;7.27;68.13;101262.34;5047921;28;20024;-61
2023/03/11 11:17:29;;;;;;;5.95;1.45;;;;;;;7.27;68.27;101258.84;5045577;28;20535;-61
2023/03/11 11:19:56;;;;;;;5.18;0.95;;;;;;;7.36;67.51;101261.34;5045330;28;20083;-61
2023/03/11 11:22:23;;;;;;;3.03;1.13;;;;;;;7.22;69.07;101274.63;5047085;28;20472;-61
2023/03/11 11:24:52;;;;;;;3.25;1.20;;;;;;;7.51;66.20;101270.78;5025773;28;20028;-60
2023/03/11 11:27:20;;;;;;;11.27;1.33;;;;;;;7.30;66.43;101270.19;5028147;28;20121;-62